sensor_id;sensor_type;location;lat;lon;timestamp;temperature;humidity
48206;DHT22;33995;48.202;16.260;2024-02-04T00:00:03;8.50;99.90
48206;DHT22;33995;48.202;16.260;2024-02-04T00:02:38;8.40;99.90
48206;DHT22;33995;48.202;16.260;2024-02-04T00:05:05;8.40;99.90
48206;DHT22;33995;48.202;16.260;2024-02-04T00:07:35;8.40;99.90
48206;DHT22;33995;48.202;16.260;2024-02-04T00:10:02;8.40;99.90
48206;DHT22;33995;48.202;16.260;2024-02-04T00:12:30;8.50;99.90
48206;DHT22;33995;48.202;16.260;2024-02-04T00:14:57;8.50;99.90
48206;DHT22;33995;48.202;16.260;2024-02-04T00:17:24;8.50;99.90
48206;DHT22;33995;48.202;16.260;2024-02-04T00:19:57;8.50;99.90
48206;DHT22;33995;48.202;16.260;2024-02-04T00:22:24;8.40;99.90
48206;DHT22;33995;48.202;16.260;2024-02-04T00:24:51;8.40;99.90
48206;DHT22;33995;48.202;16.260;2024-02-04T00:27:19;8.50;99.90
48206;DHT22;33995;48.202;16.260;2024-02-04T00:29:50;8.40;99.90
48206;DHT22;33995;48.202;16.260;2024-02-04T00:32:17;8.40;99.90
48206;DHT22;33995;48.202;16.260;2024-02-04T00:34:44;8.50;99.90
48206;DHT22;33995;48.202;16.260;2024-02-04T00:37:11;8.50;99.90
48206;DHT22;33995;48.202;16.260;2024-02-04T00:39:38;8.50;99.90
48206;DHT22;33995;48.202;16.260;2024-02-04T00:42:05;9.00;99.90
48206;DHT22;33995;48.202;16.260;2024-02-04T00:44:35;9.10;99.90
48206;DHT22;33995;48.202;16.260;2024-02-04T00:47:04;9.30;99.90
48206;DHT22;33995;48.202;16.260;2024-02-04T00:49:38;9.20;99.90
48206;DHT22;33995;48.202;16.260;2024-02-04T00:52:08;8.90;99.90
48206;DHT22;33995;48.202;16.260;2024-02-04T00:54:35;8.90;99.90
48206;DHT22;33995;48.202;16.260;2024-02-04T00:57:02;8.80;99.90
48206;DHT22;33995;48.202;16.260;2024-02-04T00:59:29;8.80;99.90
48206;DHT22;33995;48.202;16.260;2024-02-04T01:01:56;8.90;99.90
48206;DHT22;33995;48.202;16.260;2024-02-04T01:04:28;8.90;99.90
48206;DHT22;33995;48.202;16.260;2024-02-04T01:06:58;8.80;99.90
48206;DHT22;33995;48.202;16.260;2024-02-04T01:09:30;8.80;99.90
48206;DHT22;33995;48.202;16.260;2024-02-04T01:12:00;8.80;99.90
48206;DHT22;33995;48.202;16.260;2024-02-04T01:14:28;8.80;99.90
48206;DHT22;33995;48.202;16.260;2024-02-04T01:16:55;8.80;99.90
48206;DHT22;33995;48.202;16.260;2024-02-04T01:19:22;8.60;99.90
48206;DHT22;33995;48.202;16.260;2024-02-04T01:21:50;8.50;99.90
48206;DHT22;33995;48.202;16.260;2024-02-04T01:24:17;8.40;99.90
48206;DHT22;33995;48.202;16.260;2024-02-04T01:26:44;8.30;99.90
48206;DHT22;33995;48.202;16.260;2024-02-04T01:29:13;8.40;99.90
48206;DHT22;33995;48.202;16.260;2024-02-04T01:31:42;8.50;99.90
48206;DHT22;33995;48.202;16.260;2024-02-04T01:34:09;8.40;99.90
48206;DHT22;33995;48.202;16.260;2024-02-04T01:36:39;8.40;99.90
48206;DHT22;33995;48.202;16.260;2024-02-04T01:39:07;8.40;99.90
48206;DHT22;33995;48.202;16.260;2024-02-04T01:41:34;8.20;99.90
48206;DHT22;33995;48.202;16.260;2024-02-04T01:44:04;8.40;99.90
48206;DHT22;33995;48.202;16.260;2024-02-04T01:46:31;8.20;99.90
48206;DHT22;33995;48.202;16.260;2024-02-04T01:48:58;8.20;99.90
48206;DHT22;33995;48.202;16.260;2024-02-04T01:51:25;8.10;99.90
48206;DHT22;33995;48.202;16.260;2024-02-04T01:53:53;8.10;99.90
48206;DHT22;33995;48.202;16.260;2024-02-04T01:56:20;8.00;99.90
48206;DHT22;33995;48.202;16.260;2024-02-04T01:58:48;8.10;99.90
48206;DHT22;33995;48.202;16.260;2024-02-04T02:01:16;8.10;99.90
48206;DHT22;33995;48.202;16.260;2024-02-04T02:03:43;8.10;99.90
48206;DHT22;33995;48.202;16.260;2024-02-04T02:06:10;8.10;99.90
48206;DHT22;33995;48.202;16.260;2024-02-04T02:08:38;8.00;99.90
48206;DHT22;33995;48.202;16.260;2024-02-04T02:11:17;8.00;99.90
48206;DHT22;33995;48.202;16.260;2024-02-04T02:13:50;8.00;99.90
48206;DHT22;33995;48.202;16.260;2024-02-04T02:16:26;8.00;99.90
48206;DHT22;33995;48.202;16.260;2024-02-04T02:21:56;7.90;99.90
48206;DHT22;33995;48.202;16.260;2024-02-04T02:24:34;8.00;99.90
48206;DHT22;33995;48.202;16.260;2024-02-04T02:27:01;7.90;99.90
48206;DHT22;33995;48.202;16.260;2024-02-04T02:29:28;7.90;99.90
48206;DHT22;33995;48.202;16.260;2024-02-04T02:31:58;8.00;99.90
48206;DHT22;33995;48.202;16.260;2024-02-04T02:34:27;8.00;99.90
48206;DHT22;33995;48.202;16.260;2024-02-04T02:40:08;7.90;99.90
48206;DHT22;33995;48.202;16.260;2024-02-04T02:42:38;7.90;99.90
48206;DHT22;33995;48.202;16.260;2024-02-04T02:45:12;7.90;99.90
48206;DHT22;33995;48.202;16.260;2024-02-04T02:47:41;7.90;99.90
48206;DHT22;33995;48.202;16.260;2024-02-04T02:50:09;7.90;99.90
48206;DHT22;33995;48.202;16.260;2024-02-04T02:52:37;7.90;99.90
48206;DHT22;33995;48.202;16.260;2024-02-04T02:55:05;7.90;99.90
48206;DHT22;33995;48.202;16.260;2024-02-04T02:57:35;7.90;99.90
48206;DHT22;33995;48.202;16.260;2024-02-04T03:00:05;7.90;99.90
48206;DHT22;33995;48.202;16.260;2024-02-04T03:03:13;7.90;99.90
48206;DHT22;33995;48.202;16.260;2024-02-04T03:05:42;7.80;99.90
48206;DHT22;33995;48.202;16.260;2024-02-04T03:08:09;7.90;99.90
48206;DHT22;33995;48.202;16.260;2024-02-04T03:10:39;7.90;99.90
48206;DHT22;33995;48.202;16.260;2024-02-04T03:13:06;7.90;99.90
48206;DHT22;33995;48.202;16.260;2024-02-04T03:15:36;7.80;99.90
48206;DHT22;33995;48.202;16.260;2024-02-04T03:18:03;7.90;99.90
48206;DHT22;33995;48.202;16.260;2024-02-04T03:20:30;8.00;99.90
48206;DHT22;33995;48.202;16.260;2024-02-04T03:22:57;7.90;99.90
48206;DHT22;33995;48.202;16.260;2024-02-04T03:25:31;7.90;99.90
48206;DHT22;33995;48.202;16.260;2024-02-04T03:27:58;7.90;99.90
48206;DHT22;33995;48.202;16.260;2024-02-04T03:30:25;8.00;99.90
48206;DHT22;33995;48.202;16.260;2024-02-04T03:32:52;8.00;99.90
48206;DHT22;33995;48.202;16.260;2024-02-04T03:35:19;8.00;99.90
48206;DHT22;33995;48.202;16.260;2024-02-04T03:37:46;8.00;99.90
48206;DHT22;33995;48.202;16.260;2024-02-04T03:40:14;7.90;99.90
48206;DHT22;33995;48.202;16.260;2024-02-04T03:42:41;7.90;99.90
48206;DHT22;33995;48.202;16.260;2024-02-04T03:45:08;7.90;99.90
48206;DHT22;33995;48.202;16.260;2024-02-04T03:47:38;7.90;99.90
48206;DHT22;33995;48.202;16.260;2024-02-04T03:50:07;7.90;99.90
48206;DHT22;33995;48.202;16.260;2024-02-04T03:52:34;7.80;99.90
48206;DHT22;33995;48.202;16.260;2024-02-04T03:55:01;7.90;99.90
48206;DHT22;33995;48.202;16.260;2024-02-04T03:57:30;7.90;99.90
48206;DHT22;33995;48.202;16.260;2024-02-04T03:59:57;7.90;99.90
48206;DHT22;33995;48.202;16.260;2024-02-04T04:02:25;8.00;99.90
48206;DHT22;33995;48.202;16.260;2024-02-04T04:04:55;7.90;99.90
48206;DHT22;33995;48.202;16.260;2024-02-04T04:07:22;8.00;99.90
48206;DHT22;33995;48.202;16.260;2024-02-04T04:09:52;8.00;99.90
48206;DHT22;33995;48.202;16.260;2024-02-04T04:12:19;8.00;99.90
48206;DHT22;33995;48.202;16.260;2024-02-04T04:14:47;8.00;99.90
48206;DHT22;33995;48.202;16.260;2024-02-04T04:17:14;8.00;99.90
48206;DHT22;33995;48.202;16.260;2024-02-04T04:19:41;8.00;99.90
48206;DHT22;33995;48.202;16.260;2024-02-04T04:22:08;8.00;99.90
48206;DHT22;33995;48.202;16.260;2024-02-04T04:24:35;8.00;99.90
48206;DHT22;33995;48.202;16.260;2024-02-04T04:27:04;8.00;99.90
48206;DHT22;33995;48.202;16.260;2024-02-04T04:29:31;8.00;99.90
48206;DHT22;33995;48.202;16.260;2024-02-04T04:31:58;8.00;99.90
48206;DHT22;33995;48.202;16.260;2024-02-04T04:34:25;8.00;99.90
48206;DHT22;33995;48.202;16.260;2024-02-04T04:36:52;8.00;99.90
48206;DHT22;33995;48.202;16.260;2024-02-04T04:39:22;8.00;99.90
48206;DHT22;33995;48.202;16.260;2024-02-04T04:41:53;8.10;99.90
48206;DHT22;33995;48.202;16.260;2024-02-04T04:44:20;8.10;99.90
48206;DHT22;33995;48.202;16.260;2024-02-04T04:46:51;8.10;99.90
48206;DHT22;33995;48.202;16.260;2024-02-04T04:49:19;8.10;99.90
48206;DHT22;33995;48.202;16.260;2024-02-04T04:51:49;8.10;99.90
48206;DHT22;33995;48.202;16.260;2024-02-04T04:54:19;8.10;99.90
48206;DHT22;33995;48.202;16.260;2024-02-04T04:56:46;8.10;99.90
48206;DHT22;33995;48.202;16.260;2024-02-04T04:59:15;8.10;99.90
48206;DHT22;33995;48.202;16.260;2024-02-04T05:01:47;8.20;99.90
48206;DHT22;33995;48.202;16.260;2024-02-04T05:04:15;8.20;99.90
48206;DHT22;33995;48.202;16.260;2024-02-04T05:06:46;8.10;99.90
48206;DHT22;33995;48.202;16.260;2024-02-04T05:09:13;8.20;99.90
48206;DHT22;33995;48.202;16.260;2024-02-04T05:11:42;8.10;99.90
48206;DHT22;33995;48.202;16.260;2024-02-04T05:14:09;8.10;99.90
48206;DHT22;33995;48.202;16.260;2024-02-04T05:16:37;8.20;99.90
48206;DHT22;33995;48.202;16.260;2024-02-04T05:19:04;8.20;99.90
48206;DHT22;33995;48.202;16.260;2024-02-04T05:21:38;8.20;99.90
48206;DHT22;33995;48.202;16.260;2024-02-04T05:24:06;8.20;99.90
48206;DHT22;33995;48.202;16.260;2024-02-04T05:26:33;8.20;99.90
48206;DHT22;33995;48.202;16.260;2024-02-04T05:29:00;8.30;99.90
48206;DHT22;33995;48.202;16.260;2024-02-04T05:31:27;8.20;99.90
48206;DHT22;33995;48.202;16.260;2024-02-04T05:33:57;8.20;99.90
48206;DHT22;33995;48.202;16.260;2024-02-04T05:36:29;8.20;99.90
48206;DHT22;33995;48.202;16.260;2024-02-04T05:39:12;8.20;99.90
48206;DHT22;33995;48.202;16.260;2024-02-04T05:41:40;8.10;99.90
48206;DHT22;33995;48.202;16.260;2024-02-04T05:44:10;8.10;99.90
48206;DHT22;33995;48.202;16.260;2024-02-04T05:46:38;8.10;99.90
48206;DHT22;33995;48.202;16.260;2024-02-04T05:49:05;8.10;99.90
48206;DHT22;33995;48.202;16.260;2024-02-04T05:51:40;8.10;99.90
48206;DHT22;33995;48.202;16.260;2024-02-04T05:54:08;8.10;99.90
48206;DHT22;33995;48.202;16.260;2024-02-04T05:56:35;8.10;99.90
48206;DHT22;33995;48.202;16.260;2024-02-04T05:59:02;8.10;99.90
48206;DHT22;33995;48.202;16.260;2024-02-04T06:01:30;8.00;99.90
48206;DHT22;33995;48.202;16.260;2024-02-04T06:03:57;8.00;99.90
48206;DHT22;33995;48.202;16.260;2024-02-04T06:06:30;8.00;99.90
48206;DHT22;33995;48.202;16.260;2024-02-04T06:09:03;8.10;99.90
48206;DHT22;33995;48.202;16.260;2024-02-04T06:11:30;8.10;99.90
48206;DHT22;33995;48.202;16.260;2024-02-04T06:13:57;8.10;99.90
48206;DHT22;33995;48.202;16.260;2024-02-04T06:16:24;8.10;99.90
48206;DHT22;33995;48.202;16.260;2024-02-04T06:18:51;8.10;99.90
48206;DHT22;33995;48.202;16.260;2024-02-04T06:21:22;8.10;99.90
48206;DHT22;33995;48.202;16.260;2024-02-04T06:23:49;8.10;99.90
48206;DHT22;33995;48.202;16.260;2024-02-04T06:26:19;8.20;99.90
48206;DHT22;33995;48.202;16.260;2024-02-04T06:28:46;8.10;99.90
48206;DHT22;33995;48.202;16.260;2024-02-04T06:31:18;8.20;99.90
48206;DHT22;33995;48.202;16.260;2024-02-04T06:33:45;8.20;99.90
48206;DHT22;33995;48.202;16.260;2024-02-04T06:36:12;8.10;99.90
48206;DHT22;33995;48.202;16.260;2024-02-04T06:38:40;8.10;99.90
48206;DHT22;33995;48.202;16.260;2024-02-04T06:41:06;8.10;99.90
48206;DHT22;33995;48.202;16.260;2024-02-04T06:43:37;8.10;99.90
48206;DHT22;33995;48.202;16.260;2024-02-04T06:46:07;8.10;99.90
48206;DHT22;33995;48.202;16.260;2024-02-04T06:48:37;8.20;99.90
48206;DHT22;33995;48.202;16.260;2024-02-04T06:51:04;8.20;99.90
48206;DHT22;33995;48.202;16.260;2024-02-04T06:53:31;8.20;99.90
48206;DHT22;33995;48.202;16.260;2024-02-04T06:56:01;8.30;99.90
48206;DHT22;33995;48.202;16.260;2024-02-04T06:58:28;8.30;99.90
48206;DHT22;33995;48.202;16.260;2024-02-04T07:00:59;8.30;99.90
48206;DHT22;33995;48.202;16.260;2024-02-04T07:03:26;8.30;99.90
48206;DHT22;33995;48.202;16.260;2024-02-04T07:05:53;8.30;99.90
48206;DHT22;33995;48.202;16.260;2024-02-04T07:08:20;8.30;99.90
48206;DHT22;33995;48.202;16.260;2024-02-04T07:10:50;8.40;99.90
48206;DHT22;33995;48.202;16.260;2024-02-04T07:13:21;8.50;99.90
48206;DHT22;33995;48.202;16.260;2024-02-04T07:15:53;8.50;99.90
48206;DHT22;33995;48.202;16.260;2024-02-04T07:18:21;8.60;99.90
48206;DHT22;33995;48.202;16.260;2024-02-04T07:20:49;8.60;99.90
48206;DHT22;33995;48.202;16.260;2024-02-04T07:23:16;8.60;99.90
48206;DHT22;33995;48.202;16.260;2024-02-04T07:25:43;8.60;99.90
48206;DHT22;33995;48.202;16.260;2024-02-04T07:28:13;8.70;99.90
48206;DHT22;33995;48.202;16.260;2024-02-04T07:30:40;8.70;99.90
48206;DHT22;33995;48.202;16.260;2024-02-04T07:33:07;8.70;99.90
48206;DHT22;33995;48.202;16.260;2024-02-04T07:35:34;8.80;99.90
48206;DHT22;33995;48.202;16.260;2024-02-04T07:38:01;8.70;99.90
48206;DHT22;33995;48.202;16.260;2024-02-04T07:40:28;8.80;99.90
48206;DHT22;33995;48.202;16.260;2024-02-04T07:42:57;8.80;99.90
48206;DHT22;33995;48.202;16.260;2024-02-04T07:45:24;8.80;99.90
48206;DHT22;33995;48.202;16.260;2024-02-04T07:47:51;8.80;99.90
48206;DHT22;33995;48.202;16.260;2024-02-04T07:50:18;8.90;99.90
48206;DHT22;33995;48.202;16.260;2024-02-04T07:52:45;8.90;99.90
48206;DHT22;33995;48.202;16.260;2024-02-04T07:55:12;9.00;99.90
48206;DHT22;33995;48.202;16.260;2024-02-04T07:57:40;9.10;99.90
48206;DHT22;33995;48.202;16.260;2024-02-04T08:00:07;9.10;99.90
48206;DHT22;33995;48.202;16.260;2024-02-04T08:02:40;9.10;99.90
48206;DHT22;33995;48.202;16.260;2024-02-04T08:05:07;9.30;99.90
48206;DHT22;33995;48.202;16.260;2024-02-04T08:07:34;9.40;99.90
48206;DHT22;33995;48.202;16.260;2024-02-04T08:10:05;9.60;99.90
48206;DHT22;33995;48.202;16.260;2024-02-04T08:12:33;9.60;99.90
48206;DHT22;33995;48.202;16.260;2024-02-04T08:15:03;9.60;99.90
48206;DHT22;33995;48.202;16.260;2024-02-04T08:17:31;9.50;99.90
48206;DHT22;33995;48.202;16.260;2024-02-04T08:19:59;9.60;99.90
48206;DHT22;33995;48.202;16.260;2024-02-04T08:22:26;9.60;99.90
48206;DHT22;33995;48.202;16.260;2024-02-04T08:24:53;9.60;99.90
48206;DHT22;33995;48.202;16.260;2024-02-04T08:27:23;9.80;99.90
48206;DHT22;33995;48.202;16.260;2024-02-04T08:29:50;9.90;99.90
48206;DHT22;33995;48.202;16.260;2024-02-04T08:32:17;10.20;99.90
48206;DHT22;33995;48.202;16.260;2024-02-04T08:34:44;10.10;99.90
48206;DHT22;33995;48.202;16.260;2024-02-04T08:37:11;10.10;99.90
48206;DHT22;33995;48.202;16.260;2024-02-04T08:39:39;10.20;99.90
48206;DHT22;33995;48.202;16.260;2024-02-04T08:42:06;10.20;99.90
48206;DHT22;33995;48.202;16.260;2024-02-04T08:44:33;10.30;99.90
48206;DHT22;33995;48.202;16.260;2024-02-04T08:47:05;10.40;99.90
48206;DHT22;33995;48.202;16.260;2024-02-04T08:49:40;10.50;99.90
48206;DHT22;33995;48.202;16.260;2024-02-04T08:52:07;10.40;99.90
48206;DHT22;33995;48.202;16.260;2024-02-04T08:54:34;10.50;99.90
48206;DHT22;33995;48.202;16.260;2024-02-04T08:57:01;10.60;99.90
48206;DHT22;33995;48.202;16.260;2024-02-04T08:59:28;10.60;99.90
48206;DHT22;33995;48.202;16.260;2024-02-04T09:01:55;10.70;99.90
48206;DHT22;33995;48.202;16.260;2024-02-04T09:04:25;10.70;99.90
48206;DHT22;33995;48.202;16.260;2024-02-04T09:06:52;10.80;99.90
48206;DHT22;33995;48.202;16.260;2024-02-04T09:09:19;11.00;99.90
48206;DHT22;33995;48.202;16.260;2024-02-04T09:11:46;11.20;99.90
48206;DHT22;33995;48.202;16.260;2024-02-04T09:14:13;11.20;99.90
48206;DHT22;33995;48.202;16.260;2024-02-04T09:16:40;11.10;99.90
48206;DHT22;33995;48.202;16.260;2024-02-04T09:19:07;11.10;99.90
48206;DHT22;33995;48.202;16.260;2024-02-04T09:21:35;11.20;99.90
48206;DHT22;33995;48.202;16.260;2024-02-04T09:24:02;11.10;99.90
48206;DHT22;33995;48.202;16.260;2024-02-04T09:26:31;11.30;99.90
48206;DHT22;33995;48.202;16.260;2024-02-04T09:29:01;11.40;99.90
48206;DHT22;33995;48.202;16.260;2024-02-04T09:31:28;11.30;99.90
48206;DHT22;33995;48.202;16.260;2024-02-04T09:33:56;11.10;99.90
48206;DHT22;33995;48.202;16.260;2024-02-04T09:36:28;11.20;99.90
48206;DHT22;33995;48.202;16.260;2024-02-04T09:38:55;11.30;99.90
48206;DHT22;33995;48.202;16.260;2024-02-04T09:41:25;11.40;99.90
48206;DHT22;33995;48.202;16.260;2024-02-04T09:43:53;11.40;99.90
48206;DHT22;33995;48.202;16.260;2024-02-04T09:46:21;11.40;99.90
48206;DHT22;33995;48.202;16.260;2024-02-04T09:48:49;11.50;99.90
48206;DHT22;33995;48.202;16.260;2024-02-04T09:51:22;11.70;99.90
48206;DHT22;33995;48.202;16.260;2024-02-04T09:53:53;11.70;99.90
48206;DHT22;33995;48.202;16.260;2024-02-04T09:56:25;11.60;99.90
48206;DHT22;33995;48.202;16.260;2024-02-04T09:58:52;11.80;99.90
48206;DHT22;33995;48.202;16.260;2024-02-04T10:01:20;12.00;99.90
48206;DHT22;33995;48.202;16.260;2024-02-04T10:03:49;11.90;99.90
48206;DHT22;33995;48.202;16.260;2024-02-04T10:06:17;12.20;99.90
48206;DHT22;33995;48.202;16.260;2024-02-04T10:08:44;12.00;99.90
48206;DHT22;33995;48.202;16.260;2024-02-04T10:11:13;12.00;99.90
48206;DHT22;33995;48.202;16.260;2024-02-04T10:13:47;11.80;99.90
48206;DHT22;33995;48.202;16.260;2024-02-04T10:16:16;12.00;99.90
48206;DHT22;33995;48.202;16.260;2024-02-04T10:18:48;11.90;99.90
48206;DHT22;33995;48.202;16.260;2024-02-04T10:21:17;12.00;99.90
48206;DHT22;33995;48.202;16.260;2024-02-04T10:23:48;12.00;99.90
48206;DHT22;33995;48.202;16.260;2024-02-04T10:26:15;12.20;99.90
48206;DHT22;33995;48.202;16.260;2024-02-04T10:28:46;12.60;99.90
48206;DHT22;33995;48.202;16.260;2024-02-04T10:31:15;13.10;99.90
48206;DHT22;33995;48.202;16.260;2024-02-04T10:33:42;12.90;99.90
48206;DHT22;33995;48.202;16.260;2024-02-04T10:36:10;13.00;99.90
48206;DHT22;33995;48.202;16.260;2024-02-04T10:38:37;12.30;99.90
48206;DHT22;33995;48.202;16.260;2024-02-04T10:41:05;12.30;99.90
48206;DHT22;33995;48.202;16.260;2024-02-04T10:43:35;12.20;99.90
48206;DHT22;33995;48.202;16.260;2024-02-04T10:46:23;12.30;99.90
48206;DHT22;33995;48.202;16.260;2024-02-04T10:48:59;12.60;99.90
48206;DHT22;33995;48.202;16.260;2024-02-04T10:51:30;12.80;99.90
48206;DHT22;33995;48.202;16.260;2024-02-04T10:54:01;12.90;99.90
48206;DHT22;33995;48.202;16.260;2024-02-04T10:56:34;12.70;99.90
48206;DHT22;33995;48.202;16.260;2024-02-04T10:59:03;12.70;99.90
48206;DHT22;33995;48.202;16.260;2024-02-04T11:01:31;12.30;99.90
48206;DHT22;33995;48.202;16.260;2024-02-04T11:04:02;12.60;99.90
48206;DHT22;33995;48.202;16.260;2024-02-04T11:06:32;12.40;99.90
48206;DHT22;33995;48.202;16.260;2024-02-04T11:09:03;13.10;99.90
48206;DHT22;33995;48.202;16.260;2024-02-04T11:11:38;13.40;99.90
48206;DHT22;33995;48.202;16.260;2024-02-04T11:14:09;12.90;99.90
48206;DHT22;33995;48.202;16.260;2024-02-04T11:27:40;11.70;99.90
48206;DHT22;33995;48.202;16.260;2024-02-04T11:30:08;11.30;99.90
48206;DHT22;33995;48.202;16.260;2024-02-04T11:32:40;11.20;99.90
48206;DHT22;33995;48.202;16.260;2024-02-04T11:35:08;11.30;99.90
48206;DHT22;33995;48.202;16.260;2024-02-04T11:37:38;11.10;99.90
48206;DHT22;33995;48.202;16.260;2024-02-04T11:40:14;11.10;99.90
48206;DHT22;33995;48.202;16.260;2024-02-04T11:42:46;10.80;99.90
48206;DHT22;33995;48.202;16.260;2024-02-04T11:45:14;10.60;99.90
48206;DHT22;33995;48.202;16.260;2024-02-04T11:47:42;10.60;99.90
48206;DHT22;33995;48.202;16.260;2024-02-04T11:50:09;10.50;99.90
48206;DHT22;33995;48.202;16.260;2024-02-04T11:52:40;10.50;99.90
48206;DHT22;33995;48.202;16.260;2024-02-04T11:55:13;10.50;99.90
48206;DHT22;33995;48.202;16.260;2024-02-04T11:57:41;10.40;99.90
48206;DHT22;33995;48.202;16.260;2024-02-04T12:00:09;10.50;99.90
48206;DHT22;33995;48.202;16.260;2024-02-04T12:02:41;10.50;99.90
48206;DHT22;33995;48.202;16.260;2024-02-04T12:05:09;10.60;99.90
48206;DHT22;33995;48.202;16.260;2024-02-04T12:07:37;10.60;99.90
48206;DHT22;33995;48.202;16.260;2024-02-04T12:10:10;10.60;99.90
48206;DHT22;33995;48.202;16.260;2024-02-04T12:12:38;10.60;99.90
48206;DHT22;33995;48.202;16.260;2024-02-04T12:15:05;10.80;99.90
48206;DHT22;33995;48.202;16.260;2024-02-04T12:17:32;10.80;99.90
48206;DHT22;33995;48.202;16.260;2024-02-04T12:20:03;10.80;99.90
48206;DHT22;33995;48.202;16.260;2024-02-04T12:22:34;10.70;99.90
48206;DHT22;33995;48.202;16.260;2024-02-04T12:25:03;10.80;99.90
48206;DHT22;33995;48.202;16.260;2024-02-04T12:27:31;10.70;99.90
48206;DHT22;33995;48.202;16.260;2024-02-04T12:29:59;10.70;99.90
48206;DHT22;33995;48.202;16.260;2024-02-04T12:32:29;10.70;99.90
48206;DHT22;33995;48.202;16.260;2024-02-04T12:34:59;10.90;99.90
48206;DHT22;33995;48.202;16.260;2024-02-04T12:37:26;10.90;99.90
48206;DHT22;33995;48.202;16.260;2024-02-04T12:39:54;10.80;99.90
48206;DHT22;33995;48.202;16.260;2024-02-04T12:42:21;10.70;99.90
48206;DHT22;33995;48.202;16.260;2024-02-04T12:44:49;10.70;99.90
48206;DHT22;33995;48.202;16.260;2024-02-04T12:47:22;10.70;99.90
48206;DHT22;33995;48.202;16.260;2024-02-04T12:49:57;10.70;99.90
48206;DHT22;33995;48.202;16.260;2024-02-04T12:52:24;10.70;99.90
48206;DHT22;33995;48.202;16.260;2024-02-04T12:54:51;10.60;99.90
48206;DHT22;33995;48.202;16.260;2024-02-04T12:57:23;10.60;99.90
48206;DHT22;33995;48.202;16.260;2024-02-04T13:00:05;10.70;99.90
48206;DHT22;33995;48.202;16.260;2024-02-04T13:02:37;10.60;99.90
48206;DHT22;33995;48.202;16.260;2024-02-04T13:05:20;10.80;99.90
48206;DHT22;33995;48.202;16.260;2024-02-04T13:07:57;11.00;99.90
48206;DHT22;33995;48.202;16.260;2024-02-04T13:10:25;11.50;99.90
48206;DHT22;33995;48.202;16.260;2024-02-04T13:12:59;11.80;99.90
48206;DHT22;33995;48.202;16.260;2024-02-04T13:15:31;11.30;99.90
48206;DHT22;33995;48.202;16.260;2024-02-04T13:18:02;10.90;99.90
48206;DHT22;33995;48.202;16.260;2024-02-04T13:20:29;10.90;99.90
48206;DHT22;33995;48.202;16.260;2024-02-04T13:22:58;10.90;99.90
48206;DHT22;33995;48.202;16.260;2024-02-04T13:25:27;10.80;99.90
48206;DHT22;33995;48.202;16.260;2024-02-04T13:27:54;10.70;99.90
48206;DHT22;33995;48.202;16.260;2024-02-04T13:30:22;10.70;99.90
48206;DHT22;33995;48.202;16.260;2024-02-04T13:32:49;10.60;99.90
48206;DHT22;33995;48.202;16.260;2024-02-04T13:35:21;10.60;99.90
48206;DHT22;33995;48.202;16.260;2024-02-04T13:37:48;10.70;99.90
48206;DHT22;33995;48.202;16.260;2024-02-04T13:40:20;10.70;99.90
48206;DHT22;33995;48.202;16.260;2024-02-04T13:42:48;10.60;99.90
48206;DHT22;33995;48.202;16.260;2024-02-04T13:45:15;10.70;99.90
48206;DHT22;33995;48.202;16.260;2024-02-04T13:47:43;10.70;99.90
48206;DHT22;33995;48.202;16.260;2024-02-04T13:50:11;10.80;99.90
48206;DHT22;33995;48.202;16.260;2024-02-04T13:52:41;10.90;99.90
48206;DHT22;33995;48.202;16.260;2024-02-04T13:55:09;10.90;99.90
48206;DHT22;33995;48.202;16.260;2024-02-04T13:57:36;10.90;99.90
48206;DHT22;33995;48.202;16.260;2024-02-04T14:00:07;10.90;99.90
48206;DHT22;33995;48.202;16.260;2024-02-04T14:02:38;10.90;99.90
48206;DHT22;33995;48.202;16.260;2024-02-04T14:05:07;11.00;99.90
48206;DHT22;33995;48.202;16.260;2024-02-04T14:07:36;11.00;99.90
48206;DHT22;33995;48.202;16.260;2024-02-04T14:10:07;10.90;99.90
48206;DHT22;33995;48.202;16.260;2024-02-04T14:12:35;10.90;99.90
48206;DHT22;33995;48.202;16.260;2024-02-04T14:15:03;10.80;99.90
48206;DHT22;33995;48.202;16.260;2024-02-04T14:17:33;10.80;99.90
48206;DHT22;33995;48.202;16.260;2024-02-04T14:20:00;10.80;99.90
48206;DHT22;33995;48.202;16.260;2024-02-04T14:22:27;10.60;99.90
48206;DHT22;33995;48.202;16.260;2024-02-04T14:24:56;10.60;99.90
48206;DHT22;33995;48.202;16.260;2024-02-04T14:27:26;10.70;99.90
48206;DHT22;33995;48.202;16.260;2024-02-04T14:29:53;10.50;99.90
48206;DHT22;33995;48.202;16.260;2024-02-04T14:32:23;10.50;99.90
48206;DHT22;33995;48.202;16.260;2024-02-04T14:34:50;10.50;99.90
48206;DHT22;33995;48.202;16.260;2024-02-04T14:37:20;10.50;99.90
48206;DHT22;33995;48.202;16.260;2024-02-04T14:39:50;10.50;99.90
48206;DHT22;33995;48.202;16.260;2024-02-04T14:42:18;10.50;99.90
48206;DHT22;33995;48.202;16.260;2024-02-04T14:44:48;10.50;99.90
48206;DHT22;33995;48.202;16.260;2024-02-04T14:47:15;10.40;99.90
48206;DHT22;33995;48.202;16.260;2024-02-04T14:49:43;10.40;99.90
48206;DHT22;33995;48.202;16.260;2024-02-04T14:52:11;10.30;99.90
48206;DHT22;33995;48.202;16.260;2024-02-04T14:54:38;10.30;99.90
48206;DHT22;33995;48.202;16.260;2024-02-04T14:57:05;10.30;99.90
48206;DHT22;33995;48.202;16.260;2024-02-04T14:59:32;10.40;99.90
48206;DHT22;33995;48.202;16.260;2024-02-04T15:02:04;10.40;99.90
48206;DHT22;33995;48.202;16.260;2024-02-04T15:04:31;10.40;99.90
48206;DHT22;33995;48.202;16.260;2024-02-04T15:06:59;10.30;99.90
48206;DHT22;33995;48.202;16.260;2024-02-04T15:09:34;10.30;99.90
48206;DHT22;33995;48.202;16.260;2024-02-04T15:12:01;10.40;99.90
48206;DHT22;33995;48.202;16.260;2024-02-04T15:14:32;10.40;99.90
48206;DHT22;33995;48.202;16.260;2024-02-04T15:16:59;10.40;99.90
48206;DHT22;33995;48.202;16.260;2024-02-04T15:19:29;10.40;99.90
48206;DHT22;33995;48.202;16.260;2024-02-04T15:21:57;10.40;99.90
48206;DHT22;33995;48.202;16.260;2024-02-04T15:24:26;10.40;99.90
48206;DHT22;33995;48.202;16.260;2024-02-04T15:26:59;10.40;99.90
48206;DHT22;33995;48.202;16.260;2024-02-04T15:29:35;10.40;99.90
48206;DHT22;33995;48.202;16.260;2024-02-04T15:32:03;10.40;99.90
48206;DHT22;33995;48.202;16.260;2024-02-04T15:34:31;10.40;99.90
48206;DHT22;33995;48.202;16.260;2024-02-04T15:36:59;10.40;99.90
48206;DHT22;33995;48.202;16.260;2024-02-04T15:39:28;10.40;99.90
48206;DHT22;33995;48.202;16.260;2024-02-04T15:41:55;10.40;99.90
48206;DHT22;33995;48.202;16.260;2024-02-04T15:44:22;10.40;99.90
48206;DHT22;33995;48.202;16.260;2024-02-04T15:46:49;10.40;99.90
48206;DHT22;33995;48.202;16.260;2024-02-04T15:49:18;10.40;99.90
48206;DHT22;33995;48.202;16.260;2024-02-04T15:51:46;10.40;99.90